createdAt,value
2022-12-29T00:03:38.912Z,100007.88
2022-12-29T00:07:40.582Z,100011.34
2022-12-29T00:11:42.734Z,100009.84
2022-12-29T00:15:44.394Z,100014.38
2022-12-29T00:20:04.671Z,100004.22
2022-12-29T00:24:16.008Z,99999.03
2022-12-29T00:28:36.660Z,100001.78
2022-12-29T00:32:57.441Z,100000.09
2022-12-29T00:36:58.984Z,99993.31
2022-12-29T00:41:20.625Z,99998.50
2022-12-29T00:45:22.134Z,100009.63
2022-12-29T00:49:32.777Z,100002.09
2022-12-29T00:53:34.904Z,100013.22
2022-12-29T00:57:36.453Z,100002.22
2022-12-29T01:01:39.174Z,100004.91
2022-12-29T01:05:40.863Z,100010.13
2022-12-29T01:10:01.019Z,100006.72
2022-12-29T01:14:02.660Z,100002.44
2022-12-29T01:18:05.972Z,99998.38
2022-12-29T01:22:07.609Z,100000.25
2022-12-29T01:26:10.896Z,99994.44
2022-12-29T01:30:12.950Z,99984.41
2022-12-29T01:34:14.543Z,99993.91
2022-12-29T01:38:16.108Z,99993.97
2022-12-29T01:42:23.439Z,99992.28
2022-12-29T01:46:47.838Z,99994.28
2022-12-29T01:50:54.451Z,99990.94
2022-12-29T01:54:57.428Z,99984.06
2022-12-29T01:59:06.013Z,99992.28
2022-12-29T02:03:09.423Z,99990.56
2022-12-29T02:07:23.661Z,99989.00
2022-12-29T02:11:28.029Z,99986.59
2022-12-29T02:15:48.923Z,99985.03
2022-12-29T02:20:28.560Z,99980.94
2022-12-29T02:24:54.598Z,99997.28
2022-12-29T02:29:40.653Z,99980.16
2022-12-29T02:33:46.443Z,99987.75
2022-12-29T02:38:00.404Z,99982.53
2022-12-29T02:42:20.808Z,99970.81
2022-12-29T02:46:42.364Z,99963.28
2022-12-29T02:51:04.572Z,99982.16
2022-12-29T02:55:07.803Z,99960.03
2022-12-29T02:59:11.164Z,99961.88
2022-12-29T03:03:37.598Z,99961.97
2022-12-29T03:08:10.065Z,99945.81
2022-12-29T03:13:15.067Z,99951.75
2022-12-29T03:17:30.666Z,99934.72
2022-12-29T03:21:59.597Z,99932.25
2022-12-29T03:26:09.222Z,99917.78
2022-12-29T03:30:11.763Z,99910.25
2022-12-29T03:34:15.563Z,99905.19
2022-12-29T03:38:40.378Z,99900.16
2022-12-29T03:42:42.534Z,99895.16
2022-12-29T03:46:44.310Z,99877.22
2022-12-29T03:50:46.950Z,99875.56
2022-12-29T03:54:48.908Z,99877.28
2022-12-29T03:58:50.492Z,99869.53
2022-12-29T04:03:03.195Z,99859.34
2022-12-29T04:07:04.924Z,99863.63
2022-12-29T04:11:06.880Z,99862.78
2022-12-29T04:15:10.326Z,99862.84
2022-12-29T04:19:11.860Z,99859.50
2022-12-29T04:23:13.648Z,99860.41
2022-12-29T04:27:15.946Z,99861.34
2022-12-29T04:31:30.849Z,99855.41
2022-12-29T04:35:33.934Z,99850.22
2022-12-29T04:39:35.653Z,99846.75
2022-12-29T04:43:38.485Z,99868.16
2022-12-29T04:48:13.189Z,99857.91
2022-12-29T04:52:33.865Z,99863.81
2022-12-29T04:56:37.521Z,99867.25
2022-12-29T05:00:39.419Z,99878.34
2022-12-29T05:04:41.292Z,99886.09
2022-12-29T05:08:42.859Z,99886.97
2022-12-29T05:12:44.719Z,99868.16
2022-12-29T05:16:49.457Z,99870.72
2022-12-29T05:20:52.329Z,99863.84
2022-12-29T05:24:56.062Z,99872.28
2022-12-29T05:28:58.450Z,99865.47
2022-12-29T05:33:00.439Z,99864.81
2022-12-29T05:37:03.497Z,99862.25
2022-12-29T05:41:05.450Z,99872.38
2022-12-29T05:45:27.497Z,99866.31
2022-12-29T05:50:00.960Z,99861.91
2022-12-29T05:54:08.250Z,99856.84
2022-12-29T05:58:10.216Z,99861.97
2022-12-29T06:02:12.489Z,99870.66
2022-12-29T06:06:14.387Z,99862.97
2022-12-29T06:10:16.452Z,99851.88
2022-12-29T06:14:38.424Z,99842.53
2022-12-29T06:18:41.088Z,99852.00
2022-12-29T06:22:43.992Z,99848.53
2022-12-29T06:26:45.910Z,99845.97
2022-12-29T06:30:48.950Z,99834.84
2022-12-29T06:34:50.752Z,99837.50
2022-12-29T06:38:55.404Z,99831.56
2022-12-29T06:42:58.565Z,99831.56
2022-12-29T06:47:38.773Z,99833.34
2022-12-29T06:51:40.762Z,99827.41
2022-12-29T06:55:43.327Z,99830.81
2022-12-29T06:59:44.979Z,99830.03
2022-12-29T07:03:46.594Z,99826.56
2022-12-29T07:07:48.183Z,99829.94
2022-12-29T07:11:49.848Z,99829.97
2022-12-29T07:15:51.443Z,99840.28
2022-12-29T07:19:53.020Z,99844.53
2022-12-29T07:23:55.088Z,99851.41
2022-12-29T07:27:56.718Z,99860.03
2022-12-29T07:31:58.393Z,99854.03
2022-12-29T07:36:00.354Z,99850.59
2022-12-29T07:40:04.340Z,99849.75
2022-12-29T07:44:05.970Z,99848.13
2022-12-29T07:48:12.600Z,99851.59
2022-12-29T07:52:14.198Z,99862.91
2022-12-29T07:56:15.716Z,99854.41
2022-12-29T08:00:17.489Z,99850.19
2022-12-29T08:04:19.200Z,99869.97
2022-12-29T08:08:21.447Z,99867.47
2022-12-29T08:12:23.040Z,99875.31
2022-12-29T08:16:24.836Z,99874.59
2022-12-29T08:20:26.581Z,99888.38
2022-12-29T08:24:28.363Z,99903.00
2022-12-29T08:28:30.074Z,99898.84
2022-12-29T08:32:31.837Z,99896.41
2022-12-29T08:36:33.392Z,99902.47
2022-12-29T08:40:35.185Z,99900.84
2022-12-29T08:44:36.778Z,99902.72
2022-12-29T08:48:38.379Z,99897.84
2022-12-29T08:52:39.964Z,99906.53
2022-12-29T08:56:41.537Z,99909.22
2022-12-29T09:00:44.081Z,99911.06
2022-12-29T09:04:46.735Z,99905.94
2022-12-29T09:08:48.507Z,99904.94
2022-12-29T09:12:50.144Z,99924.66
2022-12-29T09:17:11.094Z,99916.13
2022-12-29T09:21:13.237Z,99929.06
2022-12-29T09:25:15.114Z,99951.22
2022-12-29T09:29:16.854Z,99952.00
2022-12-29T09:33:18.752Z,99950.34
2022-12-29T09:37:20.564Z,99953.91
2022-12-29T09:41:30.056Z,99955.66
2022-12-29T09:45:43.906Z,99958.31
2022-12-29T09:49:53.669Z,99955.00
2022-12-29T09:54:49.717Z,99965.41
2022-12-29T09:59:15.821Z,99954.28
2022-12-29T10:03:20.606Z,99968.78
2022-12-29T10:07:51.057Z,99963.00
2022-12-29T10:12:13.915Z,99957.16
2022-12-29T10:16:48.663Z,99942.72
2022-12-29T10:21:18.546Z,99965.94
2022-12-29T10:25:26.034Z,99968.56
2022-12-29T10:29:39.813Z,99960.22
2022-12-29T10:33:43.353Z,99969.63
2022-12-29T10:37:50.595Z,99977.25
2022-12-29T10:42:19.518Z,99969.38
2022-12-29T10:46:36.047Z,99969.31
2022-12-29T10:50:43.691Z,99971.13
2022-12-29T10:55:08.801Z,99977.28
2022-12-29T10:59:31.228Z,99978.47
2022-12-29T11:03:42.700Z,99977.03
2022-12-29T11:07:44.519Z,99974.97
2022-12-29T11:11:46.340Z,99965.78
2022-12-29T11:15:50.747Z,99965.09
2022-12-29T11:19:52.355Z,99958.19
2022-12-29T11:24:05.618Z,99972.78
2022-12-29T11:28:17.151Z,99962.19
2022-12-29T11:32:28.839Z,99958.56
2022-12-29T11:36:31.050Z,99972.38
2022-12-29T11:40:38.922Z,99975.91
2022-12-29T11:44:45.438Z,99977.63
2022-12-29T11:48:48.823Z,99984.44
2022-12-29T11:52:58.243Z,99974.03
2022-12-29T11:57:12.168Z,99975.66
2022-12-29T12:01:39.371Z,99973.47
2022-12-29T12:05:47.438Z,99995.44
2022-12-29T12:10:03.102Z,100001.13
2022-12-29T12:14:22.865Z,99974.56
2022-12-29T12:19:28.785Z,99975.53
2022-12-29T12:23:45.083Z,99974.47
2022-12-29T12:28:01.283Z,99965.22
2022-12-29T12:32:12.577Z,99973.91
2022-12-29T12:36:35.733Z,99966.06
2022-12-29T12:41:00.486Z,99965.09
2022-12-29T12:45:28.528Z,99981.78
2022-12-29T12:49:57.374Z,99966.84
2022-12-29T12:54:36.168Z,99962.03
2022-12-29T12:59:12.258Z,99985.38
2022-12-29T13:03:31.076Z,99977.25
2022-12-29T13:08:02.539Z,99968.03
2022-12-29T13:12:18.232Z,99959.00
2022-12-29T13:16:22.661Z,99955.63
2022-12-29T13:20:40.211Z,99949.00
2022-12-29T13:24:53.983Z,99958.59
2022-12-29T13:29:14.655Z,99961.22
2022-12-29T13:33:28.605Z,99965.09
2022-12-29T13:37:34.283Z,99969.94
2022-12-29T13:41:45.719Z,99972.59
2022-12-29T13:45:56.579Z,99977.84
2022-12-29T13:50:01.583Z,99977.03
2022-12-29T13:54:15.907Z,99966.81
2022-12-29T13:58:51.394Z,99966.88
2022-12-29T14:03:31.507Z,99981.09
2022-12-29T14:07:40.362Z,99988.50
2022-12-29T14:11:42.377Z,99994.34
2022-12-29T14:15:46.750Z,99994.72
2022-12-29T14:19:53.859Z,99997.75
2022-12-29T14:23:55.540Z,100011.25
2022-12-29T14:27:57.215Z,100015.34
2022-12-29T14:31:58.850Z,100022.59
2022-12-29T14:36:22.677Z,100023.03
2022-12-29T14:40:27.108Z,100018.75
2022-12-29T14:44:28.917Z,99998.38
2022-12-29T14:48:37.877Z,100000.34
2022-12-29T14:53:04.611Z,100018.31
2022-12-29T14:57:11.545Z,100023.63
2022-12-29T15:01:33.854Z,100023.63
2022-12-29T15:05:52.583Z,100023.53
2022-12-29T15:10:14.573Z,100004.69
2022-12-29T15:14:37.687Z,99987.47
2022-12-29T15:18:43.487Z,99984.06
2022-12-29T15:22:45.943Z,100018.25
2022-12-29T15:26:50.561Z,100022.94
2022-12-29T15:30:57.800Z,100033.59
2022-12-29T15:35:03.958Z,100047.69
2022-12-29T15:39:26.721Z,100055.13
2022-12-29T15:43:41.954Z,100060.78
2022-12-29T15:47:50.111Z,100076.91
2022-12-29T15:51:51.725Z,100075.19
2022-12-29T15:55:56.000Z,100089.81
2022-12-29T16:00:02.091Z,100088.47
2022-12-29T16:04:15.471Z,100099.06
2022-12-29T16:08:28.336Z,100104.50
2022-12-29T16:12:36.384Z,100120.91
2022-12-29T16:16:41.004Z,100109.88
2022-12-29T16:20:43.468Z,100107.38
2022-12-29T16:24:46.492Z,100107.38
2022-12-29T16:28:50.873Z,100115.16
2022-12-29T16:32:55.508Z,100120.28
2022-12-29T16:36:58.205Z,100124.69
2022-12-29T16:41:04.256Z,100134.09
2022-12-29T16:45:24.227Z,100136.72
2022-12-29T16:49:27.173Z,100154.63
2022-12-29T16:53:33.727Z,100153.59
2022-12-29T16:57:37.627Z,100143.97
2022-12-29T17:01:40.111Z,100147.13
2022-12-29T17:05:42.041Z,100135.00
2022-12-29T17:09:43.601Z,100142.38
2022-12-29T17:13:45.180Z,100147.34
2022-12-29T17:17:49.128Z,100144.75
2022-12-29T17:21:51.491Z,100143.59
2022-12-29T17:25:54.815Z,100146.91
2022-12-29T17:30:01.961Z,100142.34
2022-12-29T17:34:03.637Z,100138.81
2022-12-29T17:38:29.091Z,100132.78
2022-12-29T17:42:32.938Z,100155.19
2022-12-29T17:46:34.603Z,100152.91
2022-12-29T17:50:36.253Z,100165.00
2022-12-29T17:54:43.147Z,100160.91
2022-12-29T17:58:46.019Z,100163.53
2022-12-29T18:02:48.639Z,100148.13
2022-12-29T18:06:50.286Z,100124.03
2022-12-29T18:10:54.423Z,100103.28
2022-12-29T18:14:56.831Z,100126.34
2022-12-29T18:18:58.468Z,100129.69
2022-12-29T18:23:00.083Z,100142.34
2022-12-29T18:27:02.704Z,100138.72
2022-12-29T18:31:04.362Z,100146.97
2022-12-29T18:35:17.347Z,100145.06
2022-12-29T18:39:18.952Z,100144.97
2022-12-29T18:43:21.048Z,100144.06
2022-12-29T18:47:22.607Z,100148.16
2022-12-29T18:51:25.617Z,100157.44
2022-12-29T18:55:28.688Z,100152.31
2022-12-29T18:59:30.243Z,100153.00
2022-12-29T19:03:32.363Z,100152.91
2022-12-29T19:07:34.189Z,100150.94
2022-12-29T19:11:36.073Z,100156.78
2022-12-29T19:15:38.079Z,100149.91
2022-12-29T19:19:40.970Z,100158.44
2022-12-29T19:23:43.073Z,100146.34
2022-12-29T19:27:44.671Z,100151.34
2022-12-29T19:31:46.431Z,100148.78
2022-12-29T19:35:49.301Z,100137.69
2022-12-29T19:39:50.881Z,100147.06
2022-12-29T19:43:52.498Z,100147.16
2022-12-29T19:47:54.550Z,100166.94
2022-12-29T19:51:56.166Z,100172.84
2022-12-29T19:55:57.801Z,100166.94
2022-12-29T19:59:59.395Z,100166.94
2022-12-29T20:04:02.831Z,100173.69
2022-12-29T20:08:04.895Z,100184.78
2022-12-29T20:12:06.797Z,100189.81
2022-12-29T20:16:12.990Z,100198.31
2022-12-29T20:20:15.851Z,100197.56
2022-12-29T20:24:17.468Z,100211.13
2022-12-29T20:28:19.069Z,100212.72
2022-12-29T20:32:24.935Z,100225.41
2022-12-29T20:36:32.460Z,100228.81
2022-12-29T20:40:39.331Z,100222.78
2022-12-29T20:44:46.061Z,100231.28
2022-12-29T20:48:49.005Z,100225.31
2022-12-29T20:52:50.618Z,100232.16
2022-12-29T20:56:52.441Z,100217.75
2022-12-29T21:00:55.465Z,100223.72
2022-12-29T21:05:22.814Z,100237.53
2022-12-29T21:09:20.189Z,100239.34
2022-12-29T21:13:21.923Z,100239.38
2022-12-29T21:17:23.515Z,100242.00
2022-12-29T21:21:25.730Z,100242.69
2022-12-29T21:25:36.751Z,100257.84
2022-12-29T21:29:38.360Z,100255.94
2022-12-29T21:33:40.055Z,100258.41
2022-12-29T21:37:41.751Z,100260.00
2022-12-29T21:41:43.274Z,100259.91
2022-12-29T21:45:49.963Z,100250.50
2022-12-29T21:49:51.662Z,100264.16
2022-12-29T21:54:18.624Z,100284.53
2022-12-29T21:58:38.551Z,100292.94
2022-12-29T22:02:58.908Z,100296.25
2022-12-29T22:07:20.589Z,100296.28
2022-12-29T22:11:40.558Z,100306.69
2022-12-29T22:15:42.097Z,100312.00
2022-12-29T22:19:43.681Z,100318.94
2022-12-29T22:23:45.347Z,100328.38
2022-12-29T22:27:47.111Z,100330.22
2022-12-29T22:31:48.649Z,100324.03
2022-12-29T22:35:50.155Z,100333.13
2022-12-29T22:39:52.063Z,100328.63
2022-12-29T22:43:54.666Z,100349.66
2022-12-29T22:47:56.217Z,100361.50
2022-12-29T22:51:57.827Z,100369.06
2022-12-29T22:56:08.593Z,100372.34
2022-12-29T23:00:11.052Z,100382.22
2022-12-29T23:04:59.315Z,100382.28
2022-12-29T23:08:37.038Z,100388.47
2022-12-29T23:12:38.692Z,100384.28
2022-12-29T23:16:40.301Z,100388.47
2022-12-29T23:20:42.128Z,100387.34
2022-12-29T23:24:43.658Z,100376.81
2022-12-29T23:28:45.449Z,100378.16
2022-12-29T23:32:46.978Z,100386.38
2022-12-29T23:36:48.622Z,100391.25
2022-12-29T23:40:50.239Z,100399.56
2022-12-29T23:44:51.818Z,100405.47
2022-12-29T23:48:53.636Z,100401.97
2022-12-29T23:52:55.203Z,100412.94
2022-12-29T23:56:56.790Z,100422.03
